createdAt,value
2023-05-19T00:01:15.332Z,2.90
2023-05-19T00:03:53.970Z,2.22
2023-05-19T00:06:25.906Z,2.42
2023-05-19T00:09:02.372Z,2.80
2023-05-19T00:11:29.710Z,2.80
2023-05-19T00:13:59.088Z,2.60
2023-05-19T00:16:27.756Z,2.38
2023-05-19T00:18:54.836Z,2.20
2023-05-19T00:21:21.817Z,2.50
2023-05-19T00:23:48.675Z,2.65
2023-05-19T00:26:15.446Z,2.55
2023-05-19T00:28:42.137Z,2.40
2023-05-19T00:31:09.143Z,2.38
2023-05-19T00:33:36.705Z,3.13
2023-05-19T00:36:04.156Z,2.35
2023-05-19T00:38:31.773Z,3.17
2023-05-19T00:40:59.378Z,2.58
2023-05-19T00:43:26.529Z,2.28
2023-05-19T00:45:53.482Z,2.45
2023-05-19T00:48:21.228Z,2.45
2023-05-19T00:50:48.529Z,2.72
2023-05-19T00:53:15.313Z,2.92
2023-05-19T00:55:42.125Z,2.40
2023-05-19T00:58:09.899Z,3.72
2023-05-19T01:00:37.324Z,2.50
2023-05-19T01:03:11.518Z,2.38
2023-05-19T01:05:42.467Z,2.20
2023-05-19T01:08:09.405Z,2.50
2023-05-19T01:10:36.210Z,2.50
2023-05-19T01:13:03.946Z,2.47
2023-05-19T01:15:30.845Z,3.08
2023-05-19T01:18:11.407Z,2.65
2023-05-19T01:20:46.549Z,2.40
2023-05-19T01:23:18.556Z,2.70
2023-05-19T01:25:55.851Z,2.50
2023-05-19T01:28:47.992Z,2.60
2023-05-19T01:31:14.726Z,2.33
2023-05-19T01:33:41.630Z,2.78
2023-05-19T01:36:08.585Z,3.03
2023-05-19T01:38:35.622Z,2.78
2023-05-19T01:41:04.077Z,2.70
2023-05-19T01:43:30.948Z,2.70
2023-05-19T01:45:59.074Z,2.60
2023-05-19T01:48:25.975Z,2.45
2023-05-19T01:50:52.961Z,3.05
2023-05-19T01:53:19.859Z,3.17
2023-05-19T01:55:50.080Z,2.90
2023-05-19T01:58:25.914Z,2.88
2023-05-19T02:01:01.752Z,3.15
2023-05-19T02:03:47.687Z,3.13
2023-05-19T02:06:42.636Z,2.95
2023-05-19T02:09:12.861Z,2.85
2023-05-19T02:11:47.688Z,3.10
2023-05-19T02:14:18.363Z,3.58
2023-05-19T02:16:46.441Z,3.42
2023-05-19T02:19:28.061Z,2.80
2023-05-19T02:21:55.214Z,2.90
2023-05-19T02:24:23.117Z,3.13
2023-05-19T02:26:54.299Z,3.38
2023-05-19T02:29:21.139Z,3.28
2023-05-19T02:31:48.238Z,3.83
2023-05-19T02:34:15.171Z,3.63
2023-05-19T02:36:45.450Z,4.10
2023-05-19T02:39:12.504Z,4.10
2023-05-19T02:41:39.434Z,3.78
2023-05-19T02:44:06.506Z,4.75
2023-05-19T02:46:33.782Z,3.40
2023-05-19T02:49:00.586Z,3.67
2023-05-19T02:51:27.539Z,4.22
2023-05-19T02:53:54.378Z,3.92
2023-05-19T02:56:21.960Z,3.88
2023-05-19T02:58:48.887Z,4.15
2023-05-19T03:01:16.140Z,3.90
2023-05-19T03:03:43.098Z,4.15
2023-05-19T03:06:10.029Z,3.88
2023-05-19T03:08:36.926Z,4.22
2023-05-19T03:11:03.685Z,3.80
2023-05-19T03:13:30.570Z,4.40
2023-05-19T03:15:59.262Z,4.85
2023-05-19T03:18:26.825Z,4.47
2023-05-19T03:20:56.634Z,4.72
2023-05-19T03:23:24.188Z,4.90
2023-05-19T03:25:51.242Z,4.63
2023-05-19T03:28:18.278Z,4.53
2023-05-19T03:30:46.588Z,5.13
2023-05-19T03:33:13.604Z,5.00
2023-05-19T03:35:40.557Z,4.75
2023-05-19T03:38:07.727Z,4.72
2023-05-19T03:40:35.001Z,5.50
2023-05-19T03:43:02.119Z,4.78
2023-05-19T03:45:29.078Z,4.53
2023-05-19T03:47:56.182Z,4.95
2023-05-19T03:50:23.187Z,5.15
2023-05-19T03:52:49.996Z,5.13
2023-05-19T03:55:16.983Z,5.13
2023-05-19T03:57:44.558Z,4.93
2023-05-19T04:00:12.419Z,4.90
2023-05-19T04:02:39.539Z,4.38
2023-05-19T04:05:07.442Z,4.20
2023-05-19T04:07:34.219Z,4.70
2023-05-19T04:10:01.220Z,4.40
2023-05-19T04:12:28.388Z,4.97
2023-05-19T04:14:55.217Z,5.13
2023-05-19T04:17:23.827Z,3.72
2023-05-19T04:19:51.211Z,3.95
2023-05-19T04:22:17.995Z,5.55
2023-05-19T04:24:44.836Z,6.97
2023-05-19T04:27:12.431Z,5.88
2023-05-19T04:29:40.148Z,5.20
2023-05-19T04:32:07.928Z,5.78
2023-05-19T04:34:35.540Z,5.13
2023-05-19T04:37:02.667Z,4.95
2023-05-19T04:39:29.582Z,4.68
2023-05-19T04:41:56.728Z,3.90
2023-05-19T04:44:23.531Z,4.50
2023-05-19T04:46:54.457Z,4.65
2023-05-19T04:49:24.482Z,4.50
2023-05-19T04:51:52.315Z,5.63
2023-05-19T04:54:21.475Z,5.78
2023-05-19T04:56:48.260Z,4.57
2023-05-19T04:59:15.138Z,4.57
2023-05-19T05:01:43.405Z,4.40
2023-05-19T05:04:10.762Z,4.13
2023-05-19T05:06:38.532Z,5.78
2023-05-19T05:09:05.375Z,4.97
2023-05-19T05:11:32.520Z,4.63
2023-05-19T05:13:59.724Z,4.80
2023-05-19T05:16:26.775Z,5.70
2023-05-19T05:18:53.975Z,4.70
2023-05-19T05:21:21.285Z,4.75
2023-05-19T05:23:48.391Z,4.28
2023-05-19T05:26:18.244Z,4.38
2023-05-19T05:28:45.180Z,4.85
2023-05-19T05:31:12.214Z,5.28
2023-05-19T05:33:39.161Z,4.57
2023-05-19T05:36:06.325Z,4.95
2023-05-19T05:38:33.120Z,5.28
2023-05-19T05:41:00.568Z,4.82
2023-05-19T05:43:27.423Z,4.65
2023-05-19T05:45:54.528Z,4.57
2023-05-19T05:48:21.983Z,5.88
2023-05-19T05:50:49.031Z,4.22
2023-05-19T05:53:19.804Z,4.60
2023-05-19T05:55:47.543Z,4.55
2023-05-19T05:58:15.849Z,5.43
2023-05-19T06:03:12.646Z,4.32
2023-05-19T06:05:39.876Z,4.78
2023-05-19T06:08:06.980Z,4.63
2023-05-19T06:10:35.797Z,4.85
2023-05-19T06:13:03.833Z,4.88
2023-05-19T06:15:30.772Z,4.97
2023-05-19T06:17:58.239Z,5.63
2023-05-19T06:20:25.722Z,4.70
2023-05-19T06:22:52.537Z,5.18
2023-05-19T06:25:20.769Z,5.15
2023-05-19T06:30:14.606Z,5.43
2023-05-19T06:32:41.649Z,5.57
2023-05-19T06:35:08.748Z,4.50
2023-05-19T06:37:36.437Z,5.00
2023-05-19T06:40:04.032Z,4.68
2023-05-19T06:42:31.591Z,4.68
2023-05-19T06:44:58.545Z,4.25
2023-05-19T06:47:25.364Z,3.92
2023-05-19T06:49:55.659Z,4.30
2023-05-19T06:52:22.891Z,4.10
2023-05-19T06:54:50.041Z,2.90
2023-05-19T06:57:17.627Z,3.90
2023-05-19T06:59:46.786Z,4.10
2023-05-19T07:02:13.775Z,4.30
2023-05-19T07:04:41.280Z,4.65
2023-05-19T07:07:08.437Z,3.88
2023-05-19T07:09:35.474Z,4.15
2023-05-19T07:12:02.570Z,3.88
2023-05-19T07:14:29.460Z,4.95
2023-05-19T07:16:56.733Z,4.32
2023-05-19T07:19:24.272Z,4.47
2023-05-19T07:21:51.273Z,4.93
2023-05-19T07:24:18.319Z,4.72
2023-05-19T07:26:45.209Z,5.25
2023-05-19T07:29:11.953Z,5.10
2023-05-19T07:31:39.551Z,4.68
2023-05-19T07:34:06.587Z,4.72
2023-05-19T07:36:35.273Z,5.32
2023-05-19T07:39:02.114Z,4.63
2023-05-19T07:41:29.034Z,4.78
2023-05-19T07:43:56.129Z,4.78
2023-05-19T07:46:23.099Z,5.05
2023-05-19T07:48:50.479Z,4.60
2023-05-19T07:51:17.925Z,4.38
2023-05-19T07:53:45.045Z,4.75
2023-05-19T07:56:11.841Z,4.00
2023-05-19T07:58:38.788Z,4.18
2023-05-19T08:01:06.081Z,4.50
2023-05-19T08:03:34.021Z,4.97
2023-05-19T08:08:28.154Z,4.97
2023-05-19T08:10:55.106Z,4.53
2023-05-19T08:13:22.044Z,5.38
2023-05-19T08:15:48.910Z,5.43
2023-05-19T08:18:15.885Z,4.53
2023-05-19T08:20:42.855Z,5.15
2023-05-19T08:23:10.127Z,5.38
2023-05-19T08:25:37.542Z,5.60
2023-05-19T08:28:04.524Z,5.82
2023-05-19T08:30:31.778Z,5.90
2023-05-19T08:32:58.927Z,5.63
2023-05-19T08:35:26.144Z,5.85
2023-05-19T08:37:53.102Z,5.65
2023-05-19T08:40:21.060Z,4.90
2023-05-19T08:42:48.352Z,5.43
2023-05-19T08:45:15.269Z,5.18
2023-05-19T08:47:42.954Z,5.32
2023-05-19T08:50:11.289Z,6.57
2023-05-19T08:53:01.966Z,6.05
2023-05-19T08:55:41.316Z,5.60
2023-05-19T08:58:08.171Z,5.57
2023-05-19T09:00:35.291Z,6.22
2023-05-19T09:03:17.410Z,7.18
2023-05-19T09:05:45.838Z,6.38
2023-05-19T09:08:12.749Z,6.75
2023-05-19T09:10:39.452Z,6.68
2023-05-19T09:13:06.486Z,6.72
2023-05-19T09:15:34.330Z,6.03
2023-05-19T09:18:11.834Z,7.22
2023-05-19T09:20:44.378Z,6.97
2023-05-19T09:23:16.302Z,5.85
2023-05-19T09:25:50.350Z,6.18
2023-05-19T09:28:31.734Z,6.03
2023-05-19T09:31:08.998Z,6.20
2023-05-19T09:33:41.618Z,6.97
2023-05-19T09:36:11.150Z,6.85
2023-05-19T09:38:41.535Z,6.53
2023-05-19T09:41:09.349Z,7.18
2023-05-19T09:43:36.702Z,6.32
2023-05-19T09:46:07.560Z,6.55
2023-05-19T09:48:35.642Z,6.57
2023-05-19T09:51:08.625Z,6.72
2023-05-19T09:53:35.593Z,7.03
2023-05-19T09:56:03.730Z,6.32
2023-05-19T09:58:37.114Z,8.80
2023-05-19T10:01:04.493Z,6.63
2023-05-19T10:03:33.258Z,6.20
2023-05-19T10:06:01.518Z,6.28
2023-05-19T10:08:30.017Z,6.88
2023-05-19T10:10:57.327Z,7.18
2023-05-19T10:13:24.161Z,7.30
2023-05-19T10:18:22.507Z,7.22
2023-05-19T10:20:49.550Z,6.53
2023-05-19T10:23:17.009Z,6.60
2023-05-19T10:25:43.962Z,6.47
2023-05-19T10:28:15.206Z,6.30
2023-05-19T10:30:45.733Z,6.78
2023-05-19T10:33:16.890Z,7.20
2023-05-19T10:36:21.462Z,6.68
2023-05-19T10:38:59.276Z,6.70
2023-05-19T10:41:39.356Z,6.40
2023-05-19T10:44:57.517Z,6.65
2023-05-19T10:47:25.681Z,6.63
2023-05-19T10:49:56.273Z,6.55
2023-05-19T10:52:26.328Z,7.38
2023-05-19T10:54:54.993Z,7.18
2023-05-19T10:57:33.198Z,6.20
2023-05-19T11:00:11.287Z,6.93
2023-05-19T11:02:43.180Z,6.32
2023-05-19T11:05:15.178Z,6.72
2023-05-19T11:07:43.715Z,6.55
2023-05-19T11:10:10.903Z,6.10
2023-05-19T11:12:45.315Z,5.75
2023-05-19T11:15:13.179Z,5.30
2023-05-19T11:17:41.650Z,4.88
2023-05-19T11:20:12.377Z,5.70
2023-05-19T11:22:39.410Z,5.80
2023-05-19T11:25:07.917Z,6.47
2023-05-19T11:27:37.544Z,5.97
2023-05-19T11:30:20.272Z,7.57
2023-05-19T11:32:50.527Z,8.18
2023-05-19T11:35:19.435Z,8.07
2023-05-19T11:37:47.842Z,7.45
2023-05-19T11:40:14.888Z,7.70
2023-05-19T11:42:42.328Z,6.90
2023-05-19T11:45:09.977Z,7.07
2023-05-19T11:47:50.779Z,6.25
2023-05-19T11:50:23.681Z,5.93
2023-05-19T11:52:51.652Z,6.47
2023-05-19T11:55:18.958Z,6.80
2023-05-19T11:58:04.066Z,5.63
2023-05-19T12:03:04.571Z,5.25
2023-05-19T12:05:34.434Z,5.35
2023-05-19T12:08:03.083Z,5.88
2023-05-19T12:10:31.245Z,4.95
2023-05-19T12:15:25.777Z,4.15
2023-05-19T12:18:02.152Z,4.57
2023-05-19T12:20:31.967Z,4.15
2023-05-19T12:22:59.603Z,4.53
2023-05-19T12:25:26.649Z,3.83
2023-05-19T12:27:59.670Z,5.07
2023-05-19T12:30:28.012Z,4.85
2023-05-19T12:32:57.070Z,4.47
2023-05-19T12:35:36.406Z,4.60
2023-05-19T12:38:06.979Z,4.25
2023-05-19T12:40:36.654Z,5.22
2023-05-19T12:43:04.432Z,4.40
2023-05-19T12:45:38.968Z,5.18
2023-05-19T12:48:11.277Z,5.68
2023-05-19T12:50:38.294Z,5.28
2023-05-19T12:53:14.083Z,4.53
2023-05-19T12:55:44.843Z,4.78
2023-05-19T12:58:12.370Z,5.50
2023-05-19T13:00:43.755Z,5.25
2023-05-19T13:03:17.908Z,5.30
2023-05-19T13:05:46.840Z,5.57
2023-05-19T13:08:14.666Z,5.25
2023-05-19T13:10:43.027Z,6.60
2023-05-19T13:13:10.105Z,5.13
2023-05-19T13:15:41.326Z,5.60
2023-05-19T13:18:09.225Z,5.63
2023-05-19T13:20:36.954Z,6.75
2023-05-19T13:23:03.906Z,6.00
2023-05-19T13:25:30.991Z,6.15
2023-05-19T13:27:59.588Z,6.35
2023-05-19T13:30:26.577Z,5.43
2023-05-19T13:32:53.377Z,4.70
2023-05-19T13:35:20.806Z,4.97
2023-05-19T13:37:47.604Z,5.13
2023-05-19T13:40:14.555Z,5.55
2023-05-19T13:42:41.368Z,5.57
2023-05-19T13:45:08.845Z,4.90
2023-05-19T13:47:36.052Z,5.00
2023-05-19T13:50:04.782Z,5.00
2023-05-19T13:52:31.821Z,5.07
2023-05-19T13:54:58.601Z,5.25
2023-05-19T13:57:28.560Z,5.25
2023-05-19T14:00:02.760Z,5.18
2023-05-19T14:02:30.891Z,5.40
2023-05-19T14:04:59.542Z,5.32
2023-05-19T14:07:26.292Z,5.70
2023-05-19T14:09:53.990Z,5.00
2023-05-19T14:12:27.543Z,5.20
2023-05-19T14:14:58.775Z,4.82
2023-05-19T14:17:27.218Z,5.15
2023-05-19T14:19:54.228Z,5.10
2023-05-19T14:22:21.275Z,5.50
2023-05-19T14:24:48.388Z,5.25
2023-05-19T14:27:15.167Z,5.22
2023-05-19T14:29:42.592Z,4.93
2023-05-19T14:32:09.463Z,3.97
2023-05-19T14:34:36.311Z,5.35
2023-05-19T14:37:03.193Z,4.82
2023-05-19T14:39:30.605Z,4.75
2023-05-19T14:41:59.645Z,4.88
2023-05-19T14:44:31.773Z,4.57
2023-05-19T14:47:00.177Z,5.15
2023-05-19T14:49:27.084Z,4.15
2023-05-19T14:51:54.086Z,5.20
2023-05-19T14:54:20.881Z,4.40
2023-05-19T14:56:47.673Z,4.35
2023-05-19T14:59:14.475Z,5.15
2023-05-19T15:01:41.371Z,4.95
2023-05-19T15:04:08.143Z,4.85
2023-05-19T15:06:34.953Z,5.78
2023-05-19T15:09:01.834Z,4.43
2023-05-19T15:11:28.648Z,5.40
2023-05-19T15:13:55.577Z,5.47
2023-05-19T15:16:22.483Z,5.20
2023-05-19T15:18:51.515Z,4.95
2023-05-19T15:21:18.620Z,6.35
2023-05-19T15:23:45.414Z,5.35
2023-05-19T15:26:12.162Z,5.75
2023-05-19T15:28:39.054Z,5.47
2023-05-19T15:31:06.052Z,5.97
2023-05-19T15:33:33.141Z,5.40
2023-05-19T15:36:00.117Z,5.60
2023-05-19T15:40:55.309Z,5.68
2023-05-19T15:41:13.858Z,6.35
2023-05-19T15:43:41.607Z,6.85
2023-05-19T15:46:08.585Z,5.95
2023-05-19T15:48:35.610Z,6.38
2023-05-19T15:51:02.561Z,7.20
2023-05-19T15:53:29.330Z,6.05
2023-05-19T15:55:57.579Z,6.28
2023-05-19T16:00:51.352Z,6.72
2023-05-19T16:03:18.311Z,7.20
2023-05-19T16:05:45.130Z,6.85
2023-05-19T16:08:11.986Z,7.10
2023-05-19T16:10:38.835Z,7.22
2023-05-19T16:13:05.624Z,7.13
2023-05-19T16:15:32.419Z,7.63
2023-05-19T16:17:59.439Z,7.60
2023-05-19T16:20:28.245Z,6.60
2023-05-19T16:22:55.609Z,8.07
2023-05-19T16:25:22.975Z,8.18
2023-05-19T16:27:50.348Z,7.72
2023-05-19T16:30:17.158Z,6.68
2023-05-19T16:32:44.069Z,7.57
2023-05-19T16:35:11.314Z,7.72
2023-05-19T16:37:38.773Z,14.18
2023-05-19T16:40:08.428Z,9.57
2023-05-19T16:42:35.322Z,9.38
2023-05-19T16:45:02.271Z,9.38
2023-05-19T16:47:29.352Z,8.40
2023-05-19T16:49:56.458Z,9.77
2023-05-19T16:52:23.256Z,10.02
2023-05-19T16:54:50.136Z,13.15
2023-05-19T16:57:17.040Z,12.85
2023-05-19T16:59:43.830Z,14.35
2023-05-19T17:02:10.686Z,13.65
2023-05-19T17:04:37.566Z,12.05
2023-05-19T17:07:04.672Z,11.05
2023-05-19T17:09:31.819Z,12.18
2023-05-19T17:11:59.030Z,13.82
2023-05-19T17:14:25.853Z,11.13
2023-05-19T17:16:52.691Z,11.93
2023-05-19T17:19:19.682Z,13.40
2023-05-19T17:21:46.601Z,11.63
2023-05-19T17:24:13.456Z,11.32
2023-05-19T17:26:40.251Z,13.45
2023-05-19T17:29:07.415Z,15.48
2023-05-19T17:31:34.434Z,22.20
2023-05-19T17:34:01.289Z,24.88
2023-05-19T17:36:28.476Z,20.63
2023-05-19T17:38:55.537Z,26.95
2023-05-19T17:41:22.807Z,24.48
2023-05-19T17:43:49.732Z,29.52
2023-05-19T17:46:16.648Z,25.67
2023-05-19T17:48:44.038Z,13.45
2023-05-19T17:51:11.585Z,20.05
2023-05-19T17:53:38.826Z,27.13
2023-05-19T17:56:11.304Z,25.58
2023-05-19T17:58:38.733Z,20.98
2023-05-19T18:01:06.074Z,18.25
2023-05-19T18:03:33.676Z,15.93
2023-05-19T18:06:00.645Z,15.48
2023-05-19T18:08:27.474Z,14.13
2023-05-19T18:10:54.318Z,15.60
2023-05-19T18:13:22.967Z,14.80
2023-05-19T18:15:50.053Z,17.27
2023-05-19T18:18:17.007Z,18.90
2023-05-19T18:20:46.196Z,17.58
2023-05-19T18:23:13.137Z,17.88
2023-05-19T18:25:39.989Z,16.20
2023-05-19T18:28:07.932Z,14.35
2023-05-19T18:30:35.073Z,21.20
2023-05-19T18:33:03.913Z,11.75
2023-05-19T18:35:31.204Z,10.00
2023-05-19T18:37:58.021Z,14.13
2023-05-19T18:40:24.932Z,9.80
2023-05-19T18:42:51.941Z,10.93
2023-05-19T18:45:19.001Z,12.35
2023-05-19T18:47:46.645Z,10.98
2023-05-19T18:50:14.600Z,6.80
2023-05-19T18:52:41.459Z,5.75
2023-05-19T18:55:08.656Z,4.93
2023-05-19T18:57:35.557Z,8.10
2023-05-19T19:00:02.759Z,8.65
2023-05-19T19:02:29.626Z,18.52
2023-05-19T19:04:56.555Z,9.55
2023-05-19T19:07:24.476Z,7.72
2023-05-19T19:09:53.937Z,6.50
2023-05-19T19:12:21.333Z,7.20
2023-05-19T19:14:48.242Z,7.95
2023-05-19T19:17:15.149Z,9.52
2023-05-19T19:19:42.436Z,8.45
2023-05-19T19:22:09.455Z,11.27
2023-05-19T19:24:36.316Z,11.52
2023-05-19T19:27:03.969Z,11.80
2023-05-19T19:29:30.911Z,12.75
2023-05-19T19:31:57.768Z,12.30
2023-05-19T19:34:24.715Z,9.63
2023-05-19T19:36:51.532Z,9.77
2023-05-19T19:39:18.496Z,10.65
2023-05-19T19:41:45.532Z,9.98
2023-05-19T19:44:13.589Z,11.70
2023-05-19T19:46:40.632Z,12.48
2023-05-19T19:49:07.608Z,12.90
2023-05-19T19:51:34.343Z,10.95
2023-05-19T19:54:01.161Z,9.27
2023-05-19T19:56:28.342Z,8.88
2023-05-19T19:58:57.529Z,8.70
2023-05-19T20:01:27.635Z,9.50
2023-05-19T20:03:55.421Z,10.68
2023-05-19T20:06:22.400Z,11.45
2023-05-19T20:08:49.420Z,11.73
2023-05-19T20:11:16.678Z,11.10
2023-05-19T20:13:43.615Z,11.38
2023-05-19T20:16:10.463Z,9.20
2023-05-19T20:18:37.352Z,8.20
2023-05-19T20:21:04.209Z,7.43
2023-05-19T20:23:31.028Z,7.85
2023-05-19T20:26:10.722Z,8.57
2023-05-19T20:28:38.330Z,9.02
2023-05-19T20:31:05.925Z,9.23
2023-05-19T20:33:32.664Z,9.35
2023-05-19T20:35:59.388Z,9.85
2023-05-19T20:38:26.180Z,8.85
2023-05-19T20:40:54.330Z,9.10
2023-05-19T20:43:21.366Z,9.75
2023-05-19T20:45:48.338Z,11.48
2023-05-19T20:48:16.140Z,12.13
2023-05-19T20:50:43.187Z,11.90
2023-05-19T20:53:10.111Z,11.02
2023-05-19T20:55:41.351Z,11.07
2023-05-19T20:58:08.199Z,10.65
2023-05-19T21:00:35.191Z,10.68
2023-05-19T21:03:02.258Z,10.98
2023-05-19T21:05:29.312Z,11.20
2023-05-19T21:07:56.440Z,10.43
2023-05-19T21:10:23.343Z,10.55
2023-05-19T21:12:50.139Z,10.27
2023-05-19T21:15:17.114Z,11.55
2023-05-19T21:17:44.003Z,11.02
2023-05-19T21:20:11.233Z,11.70
2023-05-19T21:22:38.361Z,13.43
2023-05-19T21:25:05.636Z,9.55
2023-05-19T21:27:35.951Z,9.20
2023-05-19T21:30:02.925Z,9.20
2023-05-19T21:32:30.476Z,10.00
2023-05-19T21:34:57.294Z,9.57
2023-05-19T21:37:24.094Z,14.00
2023-05-19T21:39:50.945Z,10.65
2023-05-19T21:42:17.777Z,16.33
2023-05-19T21:44:44.736Z,24.67
2023-05-19T21:47:11.642Z,12.07
2023-05-19T21:49:40.405Z,9.98
2023-05-19T21:52:07.995Z,12.15
2023-05-19T21:54:35.038Z,15.55
2023-05-19T21:57:02.526Z,11.02
2023-05-19T21:59:29.371Z,8.65
2023-05-19T22:01:56.079Z,7.75
2023-05-19T22:04:23.718Z,8.23
2023-05-19T22:06:50.612Z,7.03
2023-05-19T22:09:18.201Z,7.13
2023-05-19T22:11:45.074Z,7.97
2023-05-19T22:14:12.076Z,8.32
2023-05-19T22:16:39.226Z,7.68
2023-05-19T22:19:06.186Z,9.50
2023-05-19T22:21:33.324Z,12.32
2023-05-19T22:24:00.201Z,7.45
2023-05-19T22:26:27.323Z,7.38
2023-05-19T22:28:54.097Z,8.93
2023-05-19T22:31:21.050Z,8.70
2023-05-19T22:33:47.839Z,7.90
2023-05-19T22:36:16.186Z,8.30
2023-05-19T22:38:43.057Z,11.75
2023-05-19T22:41:09.840Z,9.65
2023-05-19T22:43:37.001Z,7.45
2023-05-19T22:46:04.024Z,7.95
2023-05-19T22:48:30.935Z,7.82
2023-05-19T22:50:57.781Z,7.85
2023-05-19T22:53:24.495Z,7.07
2023-05-19T22:55:51.519Z,8.57
2023-05-19T22:58:19.073Z,8.32
2023-05-19T23:00:46.077Z,10.88
2023-05-19T23:03:13.143Z,9.95
2023-05-19T23:05:40.740Z,8.35
2023-05-19T23:08:07.587Z,7.82
2023-05-19T23:10:34.375Z,8.23
2023-05-19T23:13:01.370Z,7.75
2023-05-19T23:15:29.350Z,7.35
2023-05-19T23:17:56.337Z,6.10
2023-05-19T23:20:23.226Z,6.47
2023-05-19T23:22:50.030Z,7.32
2023-05-19T23:25:16.926Z,6.22
2023-05-19T23:27:44.084Z,6.70
2023-05-19T23:30:11.070Z,6.97
2023-05-19T23:32:37.945Z,6.60
2023-05-19T23:35:16.676Z,6.40
2023-05-19T23:37:43.584Z,7.75
2023-05-19T23:40:10.709Z,7.57
2023-05-19T23:42:37.672Z,7.28
2023-05-19T23:45:04.938Z,7.20
2023-05-19T23:47:31.768Z,8.98
2023-05-19T23:49:58.625Z,7.25
2023-05-19T23:52:25.466Z,7.45
2023-05-19T23:54:52.310Z,7.82
2023-05-19T23:57:19.146Z,7.35
2023-05-19T23:59:46.197Z,6.85
